Address 0x1e53f54262980109ca44984c71785af2af0d4978

 
 
Txn Hash Method
Block
From
To
Value [Txn Fee]
0x55e014222f50fde3503787acbf8bb87d37d87ce910330ba4cc037a9f71f3b4e20x5f575529118488262021-10-17 10:34:3612 hrs 8 mins ago0x1e53f54262980109ca44984c71785af2af0d4978OUT Metamask: Swap Router0 BNB0.00185448
0x425a922ca7947795d70e106f40ca28f7c8ee95cced4f1443f9f8c53cd8e93a700x5f575529118478542021-10-17 9:46:0012 hrs 57 mins ago0x1e53f54262980109ca44984c71785af2af0d4978OUT Metamask: Swap Router0 BNB0.001878695
0x596f00ebb827bcadfa93c63a792b37f7034acec02f17ac18087129a5e4ba509e0x5f575529118172742021-10-16 8:09:451 day 14 hrs ago0x1e53f54262980109ca44984c71785af2af0d4978OUT Metamask: Swap Router0.01 BNB0.001230165
0x8a2359adcfa33c6b46bf518f9123bdd76cc56d9a8c2c70bb4bf159207112d0e30x5f575529117748062021-10-14 20:40:353 days 2 hrs ago0x1e53f54262980109ca44984c71785af2af0d4978OUT Metamask: Swap Router0 BNB0.00167967
0x9a02a2793e808b2923b697e7aff73713e678da83d1e8df2f13f885017b9779950x5f575529117747622021-10-14 20:38:233 days 2 hrs ago0x1e53f54262980109ca44984c71785af2af0d4978OUT Metamask: Swap Router0 BNB0.00279339
0x02f43344416cef789c905430722f4e7c21cf9e66b06d5cd56c0296036f3db7dd0x5f575529117747102021-10-14 20:35:473 days 2 hrs ago0x1e53f54262980109ca44984c71785af2af0d4978OUT Metamask: Swap Router0.04 BNB0.000892335
0x1034e54e37405e76494a9762b9739ce66f1ad583e5e96bf531f401f2a87d79e20x5f575529117746852021-10-14 20:34:323 days 2 hrs ago0x1e53f54262980109ca44984c71785af2af0d4978OUT Metamask: Swap Router0.02 BNB0.000878555
0xe7191b12b161b5155c519f6a1be083f5095e2c812459c92cdf2a6484f26ed7da0x5f575529117746492021-10-14 20:32:443 days 2 hrs ago0x1e53f54262980109ca44984c71785af2af0d4978OUT Metamask: Swap Router0.04 BNB0.001373485
0x6d942f39768e3795944c3512d50adcdc8524e1419bfced042240861a81b883190x5f575529117624782021-10-14 10:21:213 days 12 hrs ago0x1e53f54262980109ca44984c71785af2af0d4978OUT Metamask: Swap Router0 BNB0.001473295
0x65246198fff5ee261b17f7bdef374f03b32ee1b56ce1e0d6c8d3e0abe6c165d90x5f575529117531162021-10-14 2:31:263 days 20 hrs ago0x1e53f54262980109ca44984c71785af2af0d4978OUT Metamask: Swap Router0 BNB0.001473905
0x7b5a0fcd596d81b083e36e82ac236fc825982f38b966cedb44d4ee40c0510c460x5f575529117530702021-10-14 2:29:083 days 20 hrs ago0x1e53f54262980109ca44984c71785af2af0d4978OUT Metamask: Swap Router0 BNB0.001329325
0xbde960d5d60b3a35d1a1cd712e4baf742da0b8664d756e6f4c46e2f345d77cc30x5f575529117530572021-10-14 2:28:293 days 20 hrs ago0x1e53f54262980109ca44984c71785af2af0d4978OUT Metamask: Swap Router0 BNB0.001329885
0xbd3f8828465a38cff7d18254f31c9e1bf884e94dfb6027daa52fa2ff882f19200x5f575529117519512021-10-14 1:33:113 days 21 hrs ago0x1e53f54262980109ca44984c71785af2af0d4978OUT Metamask: Swap Router0 BNB0.00132805
0x2cdf0093e72392955199d413e4f909240293e6fb87fb0f38c6dfe251d468a19f0x5f575529117368672021-10-13 12:49:514 days 9 hrs ago0x1e53f54262980109ca44984c71785af2af0d4978OUT Metamask: Swap Router0 BNB0.00117622
0x7e2d83b61ad6d1dd29be9f962d84ce39e6c1a9d2f43c0aeff997d36e7c23944f0x5f575529117368512021-10-13 12:49:034 days 9 hrs ago0x1e53f54262980109ca44984c71785af2af0d4978OUT Metamask: Swap Router0 BNB0.001727005
0x41bdcc200630cd9af1e1a9ce4c3e150dde95d6b8b1bbe82c566e004d13205e090x5f575529117368292021-10-13 12:47:574 days 9 hrs ago0x1e53f54262980109ca44984c71785af2af0d4978OUT Metamask: Swap Router0 BNB0.00141403
0x1d2fee3616a4185a97444621593e86daa7642d760e839de2ea91292857d63dd8Approve117368282021-10-13 12:47:544 days 9 hrs ago0x1e53f54262980109ca44984c71785af2af0d4978OUT Dogecoin: Dogecoin Token0 BNB0.00023576
0x64b1aec34ea647bd898a039036981bb6a38a9784bb042047bc233640e156683b0x5f575529117181522021-10-12 20:54:275 days 1 hr ago0x1e53f54262980109ca44984c71785af2af0d4978OUT Metamask: Swap Router0.2 BNB0.001174345
0xb4a17bca68c319ddd265338650954510aff3424e90845e2e6fbd523ed9b6304b0x5f575529117169912021-10-12 19:56:205 days 2 hrs ago0x1e53f54262980109ca44984c71785af2af0d4978OUT Metamask: Swap Router0.1 BNB0.00125749
0xcd6c09784b79d6c1f36c3b8384fba2ac97f3ce6c31a60121f975dab21325af0c0x5f575529117169642021-10-12 19:54:595 days 2 hrs ago0x1e53f54262980109ca44984c71785af2af0d4978OUT Metamask: Swap Router0.06 BNB0.004788995
0xc87a1f8deaacd62b08def6d637ddf5bd66c163e5109317be6665e618e7694a0aApprove115741722021-10-07 19:51:4510 days 2 hrs ago0x1e53f54262980109ca44984c71785af2af0d4978OUT PancakeSwap V2: LIGHT 410 BNB0.00022221
0xdf41535e0067f92dc10666e213479c5716e6c07f29dd5f69f84d398bf9f20be3Swap ETH For Exa...115739992021-10-07 19:43:0610 days 3 hrs ago0x1e53f54262980109ca44984c71785af2af0d4978OUT PancakeSwap: Router v20.044770632701122 BNB0.000651235
0xd86353e3d47ab0799acb107176d80e41c36aa9d44c554ad5f1315db24e7a2702Approve115739742021-10-07 19:41:5110 days 3 hrs ago0x1e53f54262980109ca44984c71785af2af0d4978OUT PancakeSwap: CAKE Token0 BNB0.00022059
0xdb7d23210e40f76a88a228dcff1ffd8a38318081a41e04a0e6b1a4e94d31dee3Transfer115706792021-10-07 16:57:0110 days 5 hrs agoBinance: Hot Wallet 16 IN 0x1e53f54262980109ca44984c71785af2af0d49780.4995 BNB0.00021
[ Download CSV Export 
Latest 1 internal transaction
Parent Txn Hash Block From To Value
0xdf41535e0067f92dc10666e213479c5716e6c07f29dd5f69f84d398bf9f20be3115739992021-10-07 19:43:0610 days 3 hrs ago PancakeSwap: Router v20x1e53f54262980109ca44984c71785af2af0d49780.000223357548630442 BNB
[ Download CSV Export 
Loading

Contract Name:
0 BNB

Compiler Version
0

Optimization Enabled:
0 BNB

Other Settings:
-NA-
Block Transaction Gas Used Reward
Age Block Fee Address BC Fee Address Voting Power Jailed Incoming
Block Uncle Number Difficulty Gas Used Reward
Loading
Loading
Make sure to use the "Vote Down" button for any spammy posts, and the "Vote Up" for interesting conversations.